createdAt,value
2018-12-15T00:01:08.111Z,83.20
2018-12-15T00:03:43.278Z,89.20
2018-12-15T00:06:15.823Z,76.27
2018-12-15T00:08:46.546Z,103.60
2018-12-15T00:11:17.800Z,98.53
2018-12-15T00:13:48.364Z,106.73
2018-12-15T00:16:18.542Z,128.07
2018-12-15T00:18:48.618Z,118.27
2018-12-15T00:21:19.158Z,130.13
2018-12-15T00:23:49.260Z,121.43
2018-12-15T00:26:19.408Z,121.27
2018-12-15T00:28:50.500Z,133.53
2018-12-15T00:31:21.894Z,109.70
2018-12-15T00:33:53.621Z,114.87
2018-12-15T00:36:24.303Z,120.53
2018-12-15T00:38:54.704Z,105.97
2018-12-15T00:41:26.101Z,107.83
2018-12-15T00:43:56.308Z,116.23
2018-12-15T00:46:26.503Z,117.60
2018-12-15T00:48:56.426Z,115.10
2018-12-15T00:51:27.164Z,126.90
2018-12-15T00:53:57.398Z,101.63
2018-12-15T00:56:27.331Z,116.63
2018-12-15T00:58:57.784Z,117.10
2018-12-15T01:01:27.878Z,122.17
2018-12-15T01:03:58.351Z,98.60
2018-12-15T01:06:28.392Z,114.63
2018-12-15T01:08:58.541Z,118.10
2018-12-15T01:11:28.673Z,105.77
2018-12-15T01:13:59.313Z,119.53
2018-12-15T01:16:30.142Z,115.10
2018-12-15T01:19:01.105Z,113.00
2018-12-15T01:21:31.789Z,103.13
2018-12-15T01:24:01.851Z,109.87
2018-12-15T01:26:32.251Z,108.73
2018-12-15T01:29:02.582Z,102.47
2018-12-15T01:31:32.821Z,98.67
2018-12-15T01:34:03.134Z,110.67
2018-12-15T01:36:33.330Z,112.63
2018-12-15T01:39:04.511Z,111.40
2018-12-15T01:41:36.931Z,103.03
2018-12-15T01:44:06.932Z,92.07
2018-12-15T01:46:38.050Z,99.77
2018-12-15T01:49:08.731Z,92.00
2018-12-15T01:51:39.963Z,105.30
2018-12-15T01:54:10.413Z,95.60
2018-12-15T01:56:40.862Z,88.67
2018-12-15T01:59:11.097Z,89.20
2018-12-15T02:01:41.151Z,85.67
2018-12-15T02:04:17.142Z,98.50
2018-12-15T02:06:47.515Z,95.93
2018-12-15T02:09:18.036Z,92.33
2018-12-15T02:11:48.734Z,102.00
2018-12-15T02:14:19.045Z,100.10
2018-12-15T02:16:49.562Z,102.23
2018-12-15T02:19:19.684Z,87.93
2018-12-15T02:21:49.641Z,89.17
2018-12-15T02:24:20.766Z,104.50
2018-12-15T02:26:50.951Z,95.20
2018-12-15T02:29:21.290Z,101.60
2018-12-15T02:31:51.502Z,99.23
2018-12-15T02:34:22.002Z,98.30
2018-12-15T02:36:52.375Z,102.20
2018-12-15T02:39:22.295Z,95.03
2018-12-15T02:41:52.373Z,67.23
2018-12-15T02:44:22.452Z,101.83
2018-12-15T02:46:52.764Z,102.07
2018-12-15T02:49:22.889Z,92.00
2018-12-15T02:51:52.816Z,79.40
2018-12-15T02:54:23.191Z,87.47
2018-12-15T02:56:53.261Z,101.30
2018-12-15T02:59:23.546Z,57.60
2018-12-15T03:01:54.080Z,84.30
2018-12-15T03:04:24.414Z,81.23
2018-12-15T03:06:54.751Z,66.43
2018-12-15T03:09:25.160Z,68.73
2018-12-15T03:11:55.402Z,69.83
2018-12-15T03:14:26.005Z,49.57
2018-12-15T03:17:07.208Z,64.70
2018-12-15T03:19:37.308Z,91.63
2018-12-15T03:22:07.619Z,74.10
2018-12-15T03:24:38.759Z,74.20
2018-12-15T03:27:09.014Z,84.33
2018-12-15T03:29:40.010Z,61.33
2018-12-15T03:32:10.212Z,72.07
2018-12-15T03:34:40.842Z,65.97
2018-12-15T03:37:11.196Z,44.10
2018-12-15T03:39:41.580Z,65.63
2018-12-15T03:42:11.969Z,51.37
2018-12-15T03:44:42.631Z,62.37
2018-12-15T03:47:12.816Z,60.83
2018-12-15T03:49:43.299Z,56.87
2018-12-15T03:52:13.271Z,51.10
2018-12-15T03:54:43.321Z,49.90
2018-12-15T03:57:14.354Z,67.20
2018-12-15T03:59:44.778Z,60.17
2018-12-15T04:02:15.433Z,59.60
2018-12-15T04:04:45.697Z,63.53
2018-12-15T04:07:16.427Z,63.37
2018-12-15T04:09:46.568Z,61.57
2018-12-15T04:12:16.883Z,37.27
2018-12-15T04:14:47.267Z,64.37
2018-12-15T04:17:17.530Z,67.80
2018-12-15T04:19:47.699Z,65.90
2018-12-15T04:22:21.349Z,75.83
2018-12-15T04:24:51.303Z,68.70
2018-12-15T04:27:21.609Z,75.40
2018-12-15T04:29:53.967Z,58.87
2018-12-15T04:32:24.505Z,65.03
2018-12-15T04:34:54.367Z,66.40
2018-12-15T04:37:24.567Z,64.30
2018-12-15T04:39:54.634Z,71.30
2018-12-15T04:42:25.060Z,72.50
2018-12-15T04:44:55.179Z,84.27
2018-12-15T04:47:25.132Z,67.50
2018-12-15T04:49:55.066Z,62.03
2018-12-15T04:52:25.611Z,75.63
2018-12-15T04:54:56.040Z,67.40
2018-12-15T04:57:26.372Z,54.53
2018-12-15T04:59:57.063Z,56.53
2018-12-15T05:02:28.076Z,77.93
2018-12-15T05:04:58.913Z,71.97
2018-12-15T05:07:29.674Z,69.27
2018-12-15T05:10:00.205Z,74.73
2018-12-15T05:12:30.212Z,68.33
2018-12-15T05:15:00.196Z,58.20
2018-12-15T05:17:30.447Z,54.60
2018-12-15T05:20:00.629Z,45.17
2018-12-15T05:22:30.731Z,63.60
2018-12-15T05:25:00.742Z,67.43
2018-12-15T05:27:31.902Z,61.90
2018-12-15T05:30:02.197Z,54.47
2018-12-15T05:32:32.921Z,68.77
2018-12-15T05:35:03.094Z,56.43
2018-12-15T05:37:33.132Z,77.13
2018-12-15T05:40:04.234Z,42.53
2018-12-15T05:42:34.880Z,67.47
2018-12-15T05:45:06.089Z,69.67
2018-12-15T05:47:36.735Z,55.73
2018-12-15T05:50:07.132Z,47.93
2018-12-15T05:52:38.038Z,63.77
2018-12-15T05:55:08.088Z,55.90
2018-12-15T05:57:38.364Z,72.33
2018-12-15T06:00:08.740Z,66.10
2018-12-15T06:02:40.992Z,41.30
2018-12-15T06:05:12.484Z,70.97
2018-12-15T06:07:42.716Z,65.00
2018-12-15T06:10:13.231Z,63.47
2018-12-15T06:12:44.140Z,71.43
2018-12-15T06:15:14.943Z,66.23
2018-12-15T06:17:45.042Z,68.70
2018-12-15T06:20:15.260Z,65.17
2018-12-15T06:22:45.463Z,57.23
2018-12-15T06:25:16.146Z,52.30
2018-12-15T06:27:46.659Z,60.77
2018-12-15T06:30:16.781Z,62.83
2018-12-15T06:32:46.926Z,69.23
2018-12-15T06:35:17.146Z,56.70
2018-12-15T06:37:47.124Z,64.70
2018-12-15T06:40:17.101Z,62.73
2018-12-15T06:42:47.204Z,57.10
2018-12-15T06:45:18.694Z,65.67
2018-12-15T06:47:48.884Z,44.20
2018-12-15T06:50:19.122Z,44.17
2018-12-15T06:52:49.725Z,56.60
2018-12-15T06:55:20.505Z,61.97
2018-12-15T06:57:50.524Z,26.20
2018-12-15T07:00:20.730Z,48.80
2018-12-15T07:02:51.066Z,46.13
2018-12-15T07:05:21.160Z,58.63
2018-12-15T07:07:52.023Z,50.23
2018-12-15T07:10:22.561Z,63.80
2018-12-15T07:12:53.646Z,63.80
2018-12-15T07:15:23.778Z,62.00
2018-12-15T07:17:55.117Z,52.03
2018-12-15T07:20:25.571Z,58.30
2018-12-15T07:22:55.829Z,67.97
2018-12-15T07:25:25.911Z,66.40
2018-12-15T07:27:56.606Z,52.77
2018-12-15T07:30:27.761Z,67.80
2018-12-15T07:32:58.267Z,52.23
2018-12-15T07:35:28.818Z,54.63
2018-12-15T07:37:59.048Z,59.43
2018-12-15T07:40:29.987Z,53.57
2018-12-15T07:43:00.473Z,60.00
2018-12-15T07:45:31.163Z,70.40
2018-12-15T07:48:03.534Z,52.50
2018-12-15T07:50:34.205Z,56.33
2018-12-15T07:53:05.718Z,50.23
2018-12-15T07:55:35.993Z,54.90
2018-12-15T07:58:06.165Z,47.33
2018-12-15T08:00:36.446Z,61.13
2018-12-15T08:03:06.772Z,38.17
2018-12-15T08:05:38.483Z,57.93
2018-12-15T08:08:09.434Z,46.93
2018-12-15T08:10:45.204Z,45.57
2018-12-15T08:13:20.667Z,59.37
2018-12-15T08:15:51.472Z,60.07
2018-12-15T08:18:22.419Z,53.90
2018-12-15T08:20:53.421Z,46.23
2018-12-15T08:23:24.170Z,45.27
2018-12-15T08:25:54.425Z,59.87
2018-12-15T08:28:25.260Z,47.17
2018-12-15T08:30:55.653Z,49.97
2018-12-15T08:33:26.184Z,35.20
2018-12-15T08:35:56.759Z,58.97
2018-12-15T08:38:27.204Z,39.00
2018-12-15T08:40:57.892Z,53.77
2018-12-15T08:43:28.819Z,35.43
2018-12-15T08:46:00.140Z,35.50
2018-12-15T08:48:30.985Z,45.43
2018-12-15T08:51:01.284Z,47.07
2018-12-15T08:53:32.185Z,50.87
2018-12-15T08:56:02.466Z,51.27
2018-12-15T08:58:33.082Z,45.20
2018-12-15T09:01:03.109Z,47.07
2018-12-15T09:03:33.838Z,43.73
2018-12-15T09:06:04.773Z,52.00
2018-12-15T09:08:35.448Z,48.20
2018-12-15T09:11:06.731Z,48.23
2018-12-15T09:13:43.609Z,45.13
2018-12-15T09:16:13.523Z,50.40
2018-12-15T09:18:45.072Z,37.73
2018-12-15T09:21:15.543Z,43.50
2018-12-15T09:23:45.677Z,44.23
2018-12-15T09:26:16.537Z,36.97
2018-12-15T09:28:46.840Z,48.23
2018-12-15T09:31:17.126Z,49.57
2018-12-15T09:33:47.539Z,45.27
2018-12-15T09:36:18.008Z,35.10
2018-12-15T09:38:48.369Z,34.63
2018-12-15T09:41:19.154Z,36.40
2018-12-15T09:43:50.547Z,39.50
2018-12-15T09:46:21.457Z,38.43
2018-12-15T09:48:52.241Z,34.80
2018-12-15T09:51:22.750Z,40.67
2018-12-15T09:53:53.145Z,34.70
2018-12-15T09:56:24.104Z,28.23
2018-12-15T09:58:55.232Z,27.87
2018-12-15T10:01:27.303Z,30.77
2018-12-15T10:03:57.835Z,17.60
2018-12-15T10:06:28.230Z,31.50
2018-12-15T10:08:58.629Z,29.43
2018-12-15T10:11:29.533Z,26.20
2018-12-15T10:13:59.723Z,17.27
2018-12-15T10:16:30.333Z,32.73
2018-12-15T10:19:01.139Z,30.27
2018-12-15T10:21:31.416Z,33.60
2018-12-15T10:24:01.802Z,21.47
2018-12-15T10:26:33.009Z,42.23
2018-12-15T10:29:05.025Z,42.97
2018-12-15T10:31:40.541Z,32.67
2018-12-15T10:34:11.527Z,31.63
2018-12-15T10:36:41.419Z,31.30
2018-12-15T10:39:11.868Z,32.10
2018-12-15T10:41:42.135Z,33.20
2018-12-15T10:44:12.430Z,29.70
2018-12-15T10:46:42.550Z,32.53
2018-12-15T10:49:14.994Z,32.07
2018-12-15T10:51:44.939Z,28.53
2018-12-15T10:54:15.832Z,30.23
2018-12-15T10:56:46.954Z,33.07
2018-12-15T10:59:18.034Z,29.73
2018-12-15T11:01:48.382Z,27.43
2018-12-15T11:04:19.567Z,26.60
2018-12-15T11:06:50.093Z,32.20
2018-12-15T11:09:21.114Z,31.33
2018-12-15T11:11:51.395Z,32.43
2018-12-15T11:14:23.005Z,28.47
2018-12-15T11:16:53.312Z,36.57
2018-12-15T11:19:24.151Z,32.10
2018-12-15T11:21:54.888Z,31.93
2018-12-15T11:24:25.410Z,26.90
2018-12-15T11:26:55.609Z,25.63
2018-12-15T11:29:26.035Z,41.37
2018-12-15T11:31:56.179Z,32.70
2018-12-15T11:34:26.779Z,28.93
2018-12-15T11:36:56.948Z,29.83
2018-12-15T11:39:29.942Z,31.83
2018-12-15T11:42:00.831Z,34.20
2018-12-15T11:44:31.173Z,20.37
2018-12-15T11:47:01.650Z,29.67
2018-12-15T11:49:31.888Z,40.13
2018-12-15T11:52:02.328Z,22.87
2018-12-15T11:54:32.782Z,45.73
2018-12-15T11:57:02.850Z,36.00
2018-12-15T11:59:34.413Z,23.17
2018-12-15T12:02:05.350Z,31.13
2018-12-15T12:04:36.076Z,35.57
2018-12-15T12:07:07.897Z,35.93
2018-12-15T12:09:39.035Z,29.83
2018-12-15T12:12:12.259Z,31.07
2018-12-15T12:14:43.876Z,31.60
2018-12-15T12:17:14.629Z,32.87
2018-12-15T12:19:50.153Z,28.97
2018-12-15T12:22:18.777Z,24.73
2018-12-15T12:24:50.035Z,24.90
2018-12-15T12:27:22.409Z,27.50
2018-12-15T12:29:52.993Z,29.83
2018-12-15T12:32:23.516Z,34.63
2018-12-15T12:34:53.460Z,25.37
2018-12-15T12:37:23.843Z,22.63
2018-12-15T12:39:54.675Z,33.93
2018-12-15T12:42:26.090Z,23.97
2018-12-15T12:44:57.132Z,31.47
2018-12-15T12:47:26.963Z,34.60
2018-12-15T12:49:57.481Z,38.57
2018-12-15T12:52:28.421Z,31.43
2018-12-15T12:54:58.541Z,35.37
2018-12-15T12:57:28.687Z,31.70
2018-12-15T12:59:59.460Z,30.87
2018-12-15T13:02:29.613Z,27.60
2018-12-15T13:04:59.896Z,33.17
2018-12-15T13:07:30.641Z,46.67
2018-12-15T13:10:00.953Z,33.10
2018-12-15T13:12:31.494Z,29.20
2018-12-15T13:15:01.905Z,40.13
2018-12-15T13:17:33.241Z,33.83
2018-12-15T13:20:04.954Z,33.33
2018-12-15T13:22:35.434Z,25.97
2018-12-15T13:25:06.169Z,24.33
2018-12-15T13:27:37.140Z,35.33
2018-12-15T13:30:14.759Z,37.00
2018-12-15T13:32:45.202Z,34.33
2018-12-15T13:35:15.250Z,39.00
2018-12-15T13:37:45.680Z,36.77
2018-12-15T13:40:16.150Z,27.47
2018-12-15T13:42:46.502Z,39.13
2018-12-15T13:45:17.120Z,33.07
2018-12-15T13:47:47.643Z,23.87
2018-12-15T13:50:17.890Z,31.83
2018-12-15T13:52:48.525Z,23.97
2018-12-15T13:55:19.459Z,37.57
2018-12-15T13:57:50.148Z,29.60
2018-12-15T14:00:20.271Z,29.57
2018-12-15T14:02:50.610Z,26.33
2018-12-15T14:05:21.550Z,36.93
2018-12-15T14:07:52.151Z,33.53
2018-12-15T14:10:22.467Z,30.37
2018-12-15T14:12:53.269Z,33.07
2018-12-15T14:15:23.176Z,38.60
2018-12-15T14:17:53.391Z,31.67
2018-12-15T14:20:24.938Z,30.93
2018-12-15T14:22:55.480Z,35.97
2018-12-15T14:25:25.850Z,29.70
2018-12-15T14:27:56.357Z,36.60
2018-12-15T14:30:26.578Z,29.07
2018-12-15T14:32:57.194Z,38.07
2018-12-15T14:35:28.001Z,37.93
2018-12-15T14:37:58.991Z,44.10
2018-12-15T14:40:29.876Z,26.13
2018-12-15T14:43:00.221Z,35.07
2018-12-15T14:45:30.505Z,42.27
2018-12-15T14:48:02.026Z,44.03
2018-12-15T14:50:32.671Z,47.17
2018-12-15T14:53:03.184Z,43.87
2018-12-15T14:55:33.499Z,41.53
2018-12-15T14:58:04.494Z,40.20
2018-12-15T15:00:35.719Z,34.47
2018-12-15T15:03:06.152Z,46.53
2018-12-15T15:05:37.535Z,44.20
2018-12-15T15:08:07.635Z,43.70
2018-12-15T15:10:39.419Z,41.30
2018-12-15T15:13:09.568Z,42.80
2018-12-15T15:15:41.208Z,43.93
2018-12-15T15:18:12.072Z,55.23
2018-12-15T15:20:42.500Z,58.10
2018-12-15T15:23:12.690Z,44.67
2018-12-15T15:25:42.814Z,46.23
2018-12-15T15:28:13.111Z,46.97
2018-12-15T15:30:43.168Z,43.10
2018-12-15T15:33:13.510Z,38.00
2018-12-15T15:35:44.082Z,36.13
2018-12-15T15:38:14.172Z,33.80
2018-12-15T15:40:44.359Z,39.93
2018-12-15T15:43:15.202Z,46.43
2018-12-15T15:45:45.983Z,50.03
2018-12-15T15:48:17.301Z,32.77
2018-12-15T15:50:47.731Z,46.50
2018-12-15T15:53:17.728Z,41.03
2018-12-15T15:55:47.968Z,43.43
2018-12-15T15:58:19.014Z,43.33
2018-12-15T16:00:49.079Z,43.73
2018-12-15T16:03:19.144Z,29.37
2018-12-15T16:05:50.106Z,48.93
2018-12-15T16:08:19.998Z,44.97
2018-12-15T16:10:50.894Z,41.70
2018-12-15T16:13:22.284Z,34.27
2018-12-15T16:15:52.935Z,33.13
2018-12-15T16:18:29.681Z,24.23
2018-12-15T16:21:03.738Z,29.77
2018-12-15T16:23:33.555Z,38.23
2018-12-15T16:26:03.574Z,32.07
2018-12-15T16:28:34.236Z,40.90
2018-12-15T16:31:05.611Z,22.67
2018-12-15T16:33:36.389Z,29.70
2018-12-15T16:36:06.858Z,30.30
2018-12-15T16:38:38.713Z,29.37
2018-12-15T16:41:08.849Z,28.07
2018-12-15T16:43:41.312Z,26.60
2018-12-15T16:46:11.784Z,38.50
2018-12-15T16:48:42.862Z,27.43
2018-12-15T16:51:18.197Z,17.63
2018-12-15T16:53:48.582Z,29.10
2018-12-15T17:19:15.526Z,45.47
2018-12-15T17:21:46.694Z,26.50
2018-12-15T17:24:18.112Z,31.53
2018-12-15T17:26:48.772Z,32.20
2018-12-15T17:29:20.948Z,31.07
2018-12-15T17:31:52.965Z,28.73
2018-12-15T17:34:25.129Z,26.37
2018-12-15T17:36:57.008Z,40.93
2018-12-15T17:39:28.552Z,35.27
2018-12-15T17:42:02.823Z,33.17
2018-12-15T17:44:35.273Z,43.17
2018-12-15T17:47:07.515Z,46.73
2018-12-15T17:49:47.939Z,36.93
2018-12-15T17:52:21.138Z,45.83
2018-12-15T17:54:54.814Z,46.53
2018-12-15T17:57:26.607Z,22.30
2018-12-15T17:59:58.639Z,34.30
2018-12-15T18:02:30.931Z,38.37
2018-12-15T18:05:02.848Z,38.43
2018-12-15T18:07:39.110Z,32.40
2018-12-15T18:10:11.009Z,37.60
2018-12-15T18:12:42.452Z,31.13
2018-12-15T18:15:13.541Z,32.23
2018-12-15T18:17:45.098Z,42.40
2018-12-15T18:20:15.483Z,45.83
2018-12-15T18:22:46.897Z,24.00
2018-12-15T18:25:18.859Z,28.60
2018-12-15T18:27:51.291Z,42.40
2018-12-15T18:30:22.387Z,38.23
2018-12-15T18:32:54.747Z,39.23
2018-12-15T18:35:26.317Z,42.43
2018-12-15T18:37:59.367Z,16.73
2018-12-15T18:40:30.687Z,22.20
2018-12-15T18:43:02.634Z,40.33
2018-12-15T18:45:43.867Z,34.67
2018-12-15T18:48:14.170Z,54.90
2018-12-15T18:50:44.497Z,44.50
2018-12-15T18:53:15.615Z,44.67
2018-12-15T18:55:48.651Z,41.07
2018-12-15T18:58:19.776Z,48.33
2018-12-15T19:00:52.976Z,48.13
2018-12-15T19:03:25.001Z,46.37
2018-12-15T19:05:57.144Z,51.67
2018-12-15T19:08:27.657Z,36.93
2018-12-15T19:11:00.932Z,49.60
2018-12-15T19:13:34.228Z,33.13
2018-12-15T19:16:04.405Z,48.53
2018-12-15T19:18:35.158Z,48.63
2018-12-15T19:21:05.837Z,44.17
2018-12-15T19:23:55.557Z,48.50
2018-12-15T19:26:30.196Z,40.70
2018-12-15T19:29:05.499Z,28.43
2018-12-15T19:31:44.048Z,30.00
2018-12-15T19:34:20.358Z,41.10
2018-12-15T19:36:55.370Z,37.93
2018-12-15T19:39:33.950Z,31.30
2018-12-15T19:42:04.210Z,40.63
2018-12-15T19:44:35.502Z,28.30
2018-12-15T19:47:05.826Z,44.27
2018-12-15T19:49:36.207Z,45.30
2018-12-15T19:52:16.787Z,35.30
2018-12-15T19:54:51.522Z,21.53
2018-12-15T19:57:27.397Z,39.00
2018-12-15T19:59:59.429Z,56.87
2018-12-15T20:02:30.595Z,28.30
2018-12-15T20:05:01.246Z,42.77
2018-12-15T20:07:31.745Z,23.53
2018-12-15T20:10:02.347Z,29.83
2018-12-15T20:12:41.126Z,43.47
2018-12-15T20:15:12.110Z,26.40
2018-12-15T20:17:42.721Z,42.03
2018-12-15T20:20:13.787Z,45.40
2018-12-15T20:22:50.850Z,30.73
2018-12-15T20:25:23.591Z,35.87
2018-12-15T20:27:54.331Z,43.67
2018-12-15T20:30:25.079Z,24.03
2018-12-15T20:32:55.815Z,42.77
2018-12-15T20:35:27.750Z,43.60
2018-12-15T20:37:58.425Z,34.80
2018-12-15T20:40:28.301Z,33.13
2018-12-15T20:42:58.212Z,33.63
2018-12-15T20:45:28.709Z,31.87
2018-12-15T20:47:59.468Z,39.00
2018-12-15T20:50:29.808Z,36.50
2018-12-15T20:53:01.340Z,27.47
2018-12-15T20:55:32.273Z,34.13
2018-12-15T20:58:02.437Z,34.70
2018-12-15T21:00:32.347Z,34.67
2018-12-15T21:03:03.358Z,39.27
2018-12-15T21:05:36.855Z,37.33
2018-12-15T21:08:06.231Z,24.13
2018-12-15T21:10:36.339Z,20.63
2018-12-15T21:13:07.013Z,22.40
2018-12-15T21:15:46.763Z,28.50
2018-12-15T21:18:16.844Z,22.03
2018-12-15T21:20:48.450Z,23.50
2018-12-15T21:23:21.139Z,23.87
2018-12-15T21:25:51.731Z,21.40
2018-12-15T21:28:22.836Z,19.53
2018-12-15T21:30:56.106Z,26.20
2018-12-15T21:33:26.550Z,21.43
2018-12-15T21:35:57.685Z,21.93
2018-12-15T21:38:31.705Z,24.57
2018-12-15T21:41:03.517Z,25.27
2018-12-15T21:43:34.309Z,19.80
2018-12-15T21:46:06.897Z,36.10
2018-12-15T21:48:37.421Z,20.60
2018-12-15T21:51:07.879Z,32.00
2018-12-15T21:53:41.826Z,24.47
2018-12-15T21:56:14.711Z,28.37
2018-12-15T21:58:47.708Z,22.07
2018-12-15T22:01:20.432Z,29.40
2018-12-15T22:03:52.244Z,20.33
2018-12-15T22:06:23.330Z,23.10
2018-12-15T22:08:58.530Z,35.13
2018-12-15T22:11:28.657Z,24.80
2018-12-15T22:14:01.361Z,24.90
2018-12-15T22:16:33.834Z,27.33
2018-12-15T22:19:06.894Z,38.23
2018-12-15T22:21:38.979Z,42.67
2018-12-15T22:24:12.814Z,40.93
2018-12-15T22:26:43.280Z,21.33
2018-12-15T22:29:13.894Z,27.60
2018-12-15T22:31:44.520Z,24.93
2018-12-15T22:34:16.220Z,31.70
2018-12-15T22:36:47.439Z,27.83
2018-12-15T22:39:18.496Z,25.93
2018-12-15T22:41:49.760Z,19.63
2018-12-15T22:44:20.409Z,22.83
2018-12-15T22:46:50.960Z,18.30
2018-12-15T22:49:24.614Z,23.00
2018-12-15T22:51:58.227Z,28.13
2018-12-15T22:54:28.699Z,25.07
2018-12-15T22:56:58.903Z,19.30
2018-12-15T22:59:31.331Z,24.17
2018-12-15T23:02:01.797Z,15.80
2018-12-15T23:04:31.923Z,17.13
2018-12-15T23:07:02.359Z,22.83
2018-12-15T23:09:32.849Z,26.13
2018-12-15T23:12:03.414Z,15.90
2018-12-15T23:14:34.105Z,30.87
2018-12-15T23:17:05.231Z,23.93
2018-12-15T23:19:35.458Z,29.27
2018-12-15T23:22:05.527Z,21.13
2018-12-15T23:24:36.941Z,16.30
2018-12-15T23:27:07.383Z,26.20
2018-12-15T23:29:37.775Z,30.87
2018-12-15T23:32:07.936Z,34.30
2018-12-15T23:34:38.391Z,28.57
2018-12-15T23:37:09.856Z,34.50
2018-12-15T23:39:40.371Z,33.17
2018-12-15T23:42:11.126Z,31.57
2018-12-15T23:44:41.249Z,31.87
2018-12-15T23:47:11.898Z,29.37
2018-12-15T23:49:42.800Z,36.13
2018-12-15T23:52:13.260Z,38.47
2018-12-15T23:54:44.711Z,30.77
2018-12-15T23:57:15.230Z,30.00
2018-12-15T23:59:45.730Z,38.93
